createdAt,value
2023-05-15T00:02:57.931Z,12.55
2023-05-15T00:05:29.339Z,16.15
2023-05-15T00:08:05.543Z,13.55
2023-05-15T00:13:15.241Z,16.35
2023-05-15T00:18:40.377Z,16.67
2023-05-15T00:21:12.406Z,14.02
2023-05-15T00:26:28.135Z,10.55
2023-05-15T00:29:07.764Z,13.63
2023-05-15T00:31:36.293Z,14.38
2023-05-15T00:34:10.346Z,15.02
2023-05-15T00:36:40.835Z,12.52
2023-05-15T00:42:01.918Z,13.75
2023-05-15T00:47:17.993Z,15.00
2023-05-15T00:49:50.691Z,13.95
2023-05-15T00:57:49.560Z,16.77
2023-05-15T01:00:20.076Z,11.65
2023-05-15T01:02:49.820Z,10.88
2023-05-15T01:05:21.889Z,18.45
2023-05-15T01:10:39.193Z,14.10
2023-05-15T01:13:11.869Z,12.23
2023-05-15T01:15:39.880Z,11.80
2023-05-15T01:18:10.289Z,15.82
2023-05-15T01:21:04.780Z,11.57
2023-05-15T01:23:42.261Z,24.80
2023-05-15T01:26:38.375Z,10.98
2023-05-15T01:29:12.725Z,14.23
2023-05-15T01:31:49.223Z,16.70
2023-05-15T01:34:25.409Z,16.40
2023-05-15T01:36:57.684Z,12.25
2023-05-15T01:39:29.337Z,14.23
2023-05-15T01:42:03.536Z,20.00
2023-05-15T01:44:36.890Z,11.90
2023-05-15T01:47:11.381Z,15.40
2023-05-15T01:49:40.451Z,14.30
2023-05-15T01:52:24.130Z,11.20
2023-05-15T01:54:52.542Z,12.85
2023-05-15T01:57:21.965Z,15.80
2023-05-15T01:59:51.780Z,13.93
2023-05-15T02:02:20.032Z,12.02
2023-05-15T02:04:49.431Z,12.85
2023-05-15T02:07:17.869Z,9.82
2023-05-15T02:09:50.374Z,14.38
2023-05-15T02:12:21.406Z,12.80
2023-05-15T02:14:50.663Z,10.50
2023-05-15T02:17:23.961Z,10.38
2023-05-15T02:19:52.776Z,8.65
2023-05-15T02:22:20.552Z,13.77
2023-05-15T02:24:48.747Z,10.82
2023-05-15T02:27:28.587Z,13.63
2023-05-15T02:30:35.548Z,27.77
2023-05-15T02:33:32.162Z,21.05
2023-05-15T02:36:06.220Z,16.25
2023-05-15T02:38:40.284Z,22.83
2023-05-15T02:41:10.538Z,10.32
2023-05-15T02:43:41.494Z,10.65
2023-05-15T02:46:10.243Z,13.52
2023-05-15T02:48:42.307Z,10.30
2023-05-15T02:51:10.507Z,13.32
2023-05-15T02:53:42.775Z,18.88
2023-05-15T02:58:40.336Z,13.73
2023-05-15T03:01:08.842Z,13.00
2023-05-15T03:03:36.895Z,12.15
2023-05-15T03:06:05.590Z,21.27
2023-05-15T03:08:33.920Z,30.35
2023-05-15T03:11:03.932Z,22.30
2023-05-15T03:13:31.954Z,13.23
2023-05-15T03:16:00.167Z,17.83
2023-05-15T03:18:29.150Z,17.40
2023-05-15T03:20:57.239Z,13.82
2023-05-15T03:23:25.110Z,11.45
2023-05-15T03:25:56.503Z,8.55
2023-05-15T03:28:24.867Z,11.75
2023-05-15T03:30:56.462Z,14.53
2023-05-15T03:33:28.648Z,10.82
2023-05-15T03:35:56.564Z,12.90
2023-05-15T03:38:24.594Z,19.33
2023-05-15T03:40:57.670Z,12.82
2023-05-15T03:43:26.577Z,17.83
2023-05-15T03:46:01.404Z,12.07
2023-05-15T03:48:30.344Z,9.55
2023-05-15T03:51:00.549Z,14.23
2023-05-15T03:53:34.067Z,10.27
2023-05-15T03:56:04.747Z,8.73
2023-05-15T03:58:32.976Z,14.55
2023-05-15T04:01:05.272Z,33.55
2023-05-15T04:03:33.419Z,15.00
2023-05-15T04:06:01.650Z,10.73
2023-05-15T04:08:30.496Z,24.65
2023-05-15T04:10:58.905Z,9.55
2023-05-15T04:13:26.843Z,13.82
2023-05-15T04:15:56.446Z,11.93
2023-05-15T04:18:26.642Z,17.80
2023-05-15T04:20:59.047Z,13.63
2023-05-15T04:23:27.310Z,15.00
2023-05-15T04:25:57.012Z,12.02
2023-05-15T04:28:28.603Z,14.55
2023-05-15T04:33:27.369Z,23.63
2023-05-15T04:35:55.349Z,10.95
2023-05-15T04:38:23.169Z,10.60
2023-05-15T04:40:51.096Z,25.52
2023-05-15T04:43:19.447Z,15.40
2023-05-15T04:45:47.598Z,34.30
2023-05-15T04:48:14.755Z,26.25
2023-05-15T04:50:41.963Z,19.50
2023-05-15T04:53:09.004Z,20.95
2023-05-15T04:55:36.152Z,35.53
2023-05-15T04:58:03.539Z,18.80
2023-05-15T05:00:31.316Z,20.25
2023-05-15T05:02:58.457Z,17.50
2023-05-15T05:05:26.431Z,16.50
2023-05-15T05:07:53.720Z,38.83
2023-05-15T05:10:21.485Z,20.98
2023-05-15T05:12:48.650Z,20.80
2023-05-15T05:15:21.515Z,28.13
2023-05-15T05:17:51.700Z,24.73
2023-05-15T05:20:19.019Z,27.73
2023-05-15T05:22:46.012Z,34.78
2023-05-15T05:25:13.269Z,28.73
2023-05-15T05:27:40.358Z,22.20
2023-05-15T05:30:08.857Z,20.58
2023-05-15T05:32:35.957Z,25.95
2023-05-15T05:35:04.133Z,18.17
2023-05-15T05:37:31.127Z,23.65
2023-05-15T05:40:00.364Z,24.88
2023-05-15T05:42:27.936Z,19.88
2023-05-15T05:44:54.981Z,18.30
2023-05-15T05:47:22.171Z,14.70
2023-05-15T05:49:53.896Z,7.35
2023-05-15T05:52:20.982Z,18.20
2023-05-15T05:54:50.284Z,10.77
2023-05-15T05:57:17.229Z,13.15
2023-05-15T05:59:44.203Z,15.45
2023-05-15T06:02:11.551Z,11.20
2023-05-15T06:04:38.611Z,14.90
2023-05-15T06:07:05.561Z,10.48
2023-05-15T06:09:33.011Z,15.93
2023-05-15T06:12:00.941Z,23.73
2023-05-15T06:14:30.187Z,16.50
2023-05-15T06:16:57.230Z,17.92
2023-05-15T06:19:24.394Z,17.02
2023-05-15T06:21:51.450Z,15.13
2023-05-15T06:24:19.922Z,14.45
2023-05-15T06:26:46.951Z,11.38
2023-05-15T06:29:14.035Z,15.20
2023-05-15T06:31:41.044Z,11.82
2023-05-15T06:34:07.944Z,14.27
2023-05-15T06:36:35.460Z,9.25
2023-05-15T06:39:02.394Z,9.13
2023-05-15T06:41:29.414Z,16.52
2023-05-15T06:43:56.380Z,14.35
2023-05-15T06:46:23.412Z,16.80
2023-05-15T06:48:50.511Z,15.23
2023-05-15T06:51:17.605Z,21.42
2023-05-15T06:53:44.605Z,12.57
2023-05-15T06:56:11.756Z,12.00
2023-05-15T06:58:39.421Z,14.52
2023-05-15T07:01:07.329Z,24.13
2023-05-15T07:03:34.345Z,18.35
2023-05-15T07:06:01.343Z,21.27
2023-05-15T07:08:28.973Z,16.90
2023-05-15T07:10:56.207Z,11.25
2023-05-15T07:13:26.121Z,14.85
2023-05-15T07:15:53.136Z,22.45
2023-05-15T07:18:20.152Z,13.30
2023-05-15T07:20:47.176Z,16.70
2023-05-15T07:23:14.253Z,11.77
2023-05-15T07:25:41.236Z,13.82
2023-05-15T07:28:08.330Z,7.28
2023-05-15T07:30:35.656Z,9.93
2023-05-15T07:33:03.540Z,7.03
2023-05-15T07:35:30.668Z,10.70
2023-05-15T07:37:57.661Z,14.55
2023-05-15T07:40:24.884Z,9.80
2023-05-15T07:42:52.124Z,7.80
2023-05-15T07:45:19.392Z,13.85
2023-05-15T07:47:48.262Z,8.70
2023-05-15T07:50:18.104Z,8.02
2023-05-15T07:52:45.209Z,8.75
2023-05-15T07:55:12.858Z,20.73
2023-05-15T07:57:42.629Z,10.50
2023-05-15T08:00:11.259Z,6.85
2023-05-15T08:02:38.408Z,8.40
2023-05-15T08:05:06.030Z,9.90
2023-05-15T08:07:36.194Z,10.98
2023-05-15T08:10:06.419Z,12.18
2023-05-15T08:12:33.905Z,11.70
2023-05-15T08:15:01.132Z,7.55
2023-05-15T08:17:28.123Z,11.13
2023-05-15T08:19:55.469Z,14.63
2023-05-15T08:22:22.593Z,6.50
2023-05-15T08:24:49.566Z,7.18
2023-05-15T08:27:16.568Z,8.73
2023-05-15T08:29:43.531Z,8.05
2023-05-15T08:32:10.897Z,4.88
2023-05-15T08:34:38.781Z,5.95
2023-05-15T08:37:06.899Z,6.75
2023-05-15T08:39:33.863Z,6.50
2023-05-15T08:42:24.531Z,8.13
2023-05-15T08:44:51.752Z,6.45
2023-05-15T08:47:19.720Z,7.68
2023-05-15T08:50:15.260Z,6.60
2023-05-15T08:52:44.085Z,8.75
2023-05-15T08:55:11.565Z,10.15
2023-05-15T08:57:39.297Z,8.95
2023-05-15T09:00:09.345Z,11.27
2023-05-15T09:02:37.656Z,8.80
2023-05-15T09:05:09.744Z,9.68
2023-05-15T09:10:04.575Z,7.85
2023-05-15T09:12:34.662Z,9.57
2023-05-15T09:15:12.185Z,12.30
2023-05-15T09:17:41.005Z,7.00
2023-05-15T09:20:08.774Z,6.95
2023-05-15T09:22:37.056Z,6.88
2023-05-15T09:25:04.596Z,13.88
2023-05-15T09:27:41.123Z,11.90
2023-05-15T09:30:11.591Z,5.22
2023-05-15T09:32:38.709Z,8.95
2023-05-15T09:35:07.728Z,7.15
2023-05-15T09:37:35.076Z,7.57
2023-05-15T09:40:09.668Z,6.93
2023-05-15T09:42:37.096Z,10.80
2023-05-15T09:45:04.689Z,6.10
2023-05-15T09:47:32.027Z,6.43
2023-05-15T09:49:59.117Z,7.78
2023-05-15T09:52:27.943Z,11.52
2023-05-15T09:54:55.194Z,8.95
2023-05-15T09:57:23.622Z,8.77
2023-05-15T09:59:50.704Z,4.95
2023-05-15T10:02:36.674Z,11.40
2023-05-15T10:05:05.029Z,7.13
2023-05-15T10:07:36.724Z,8.13
2023-05-15T10:10:05.458Z,8.05
2023-05-15T10:12:32.642Z,6.95
2023-05-15T10:15:01.139Z,5.43
2023-05-15T10:17:29.494Z,8.95
2023-05-15T10:19:59.311Z,6.88
2023-05-15T10:22:30.244Z,8.77
2023-05-15T10:25:10.929Z,13.95
2023-05-15T10:27:39.374Z,13.40
2023-05-15T10:30:08.368Z,10.00
2023-05-15T10:32:37.422Z,9.20
2023-05-15T10:35:04.934Z,15.05
2023-05-15T10:37:32.733Z,12.23
2023-05-15T10:40:00.489Z,8.45
2023-05-15T10:42:28.056Z,7.68
2023-05-15T10:45:00.142Z,10.60
2023-05-15T10:49:54.756Z,9.80
2023-05-15T10:52:21.878Z,9.27
2023-05-15T10:54:50.515Z,9.30
2023-05-15T10:57:17.528Z,10.00
2023-05-15T10:59:44.707Z,12.50
2023-05-15T11:02:29.933Z,9.25
2023-05-15T11:05:03.566Z,10.75
2023-05-15T11:07:30.588Z,8.38
2023-05-15T11:09:57.883Z,5.75
2023-05-15T11:12:25.138Z,11.55
2023-05-15T11:14:52.486Z,7.93
2023-05-15T11:17:19.853Z,9.30
2023-05-15T11:19:50.007Z,6.88
2023-05-15T11:22:33.013Z,9.63
2023-05-15T11:25:01.052Z,10.25
2023-05-15T11:27:41.154Z,11.30
2023-05-15T11:30:25.344Z,8.20
2023-05-15T11:32:55.730Z,7.53
2023-05-15T11:35:39.341Z,8.02
2023-05-15T11:38:15.855Z,7.15
2023-05-15T11:41:03.796Z,9.93
2023-05-15T11:43:36.572Z,8.93
2023-05-15T11:46:03.470Z,16.58
2023-05-15T11:48:34.605Z,8.20
2023-05-15T11:51:02.275Z,9.57
2023-05-15T11:53:30.587Z,9.73
2023-05-15T11:55:57.785Z,7.95
2023-05-15T11:58:26.128Z,9.40
2023-05-15T12:00:54.260Z,7.88
2023-05-15T12:03:33.537Z,13.65
2023-05-15T12:06:02.098Z,5.72
2023-05-15T12:08:37.596Z,9.68
2023-05-15T12:11:05.271Z,5.53
2023-05-15T12:13:33.445Z,6.75
2023-05-15T12:16:02.000Z,7.05
2023-05-15T12:18:29.941Z,4.93
2023-05-15T12:20:57.044Z,7.15
2023-05-15T12:23:25.958Z,7.03
2023-05-15T12:25:58.843Z,8.50
2023-05-15T12:28:26.744Z,7.78
2023-05-15T12:30:54.580Z,9.10
2023-05-15T12:33:21.777Z,9.48
2023-05-15T12:35:58.021Z,8.02
2023-05-15T12:38:28.284Z,7.30
2023-05-15T12:40:57.198Z,7.82
2023-05-15T12:43:25.611Z,11.95
2023-05-15T12:45:54.398Z,7.85
2023-05-15T12:48:21.973Z,7.57
2023-05-15T12:50:52.218Z,7.10
2023-05-15T12:53:21.886Z,6.75
2023-05-15T12:55:49.163Z,5.68
2023-05-15T12:58:18.984Z,6.07
2023-05-15T13:00:46.911Z,10.77
2023-05-15T13:03:14.645Z,7.28
2023-05-15T13:05:45.887Z,7.93
2023-05-15T13:08:17.857Z,9.33
2023-05-15T13:10:46.301Z,6.70
2023-05-15T13:13:13.810Z,6.10
2023-05-15T13:15:45.008Z,5.25
2023-05-15T13:18:16.917Z,8.10
2023-05-15T13:20:54.243Z,5.40
2023-05-15T13:23:24.963Z,6.97
2023-05-15T13:25:51.964Z,4.78
2023-05-15T13:28:18.940Z,5.43
2023-05-15T13:30:46.055Z,5.45
2023-05-15T13:33:13.194Z,4.32
2023-05-15T13:35:41.704Z,5.10
2023-05-15T13:38:11.330Z,4.72
2023-05-15T13:40:39.244Z,6.85
2023-05-15T13:43:06.900Z,4.82
2023-05-15T13:45:34.171Z,5.10
2023-05-15T13:48:01.686Z,4.05
2023-05-15T13:50:28.886Z,5.22
2023-05-15T13:52:56.121Z,7.65
2023-05-15T13:55:24.097Z,3.78
2023-05-15T13:57:52.323Z,5.07
2023-05-15T14:00:20.340Z,6.40
2023-05-15T14:02:47.443Z,4.57
2023-05-15T14:05:15.707Z,4.90
2023-05-15T14:07:43.007Z,4.53
2023-05-15T14:10:12.327Z,5.43
2023-05-15T14:12:39.813Z,6.25
2023-05-15T14:15:11.386Z,3.80
2023-05-15T14:17:38.458Z,2.88
2023-05-15T14:20:06.773Z,3.95
2023-05-15T14:22:33.728Z,4.85
2023-05-15T14:25:01.306Z,3.75
2023-05-15T14:27:28.583Z,3.50
2023-05-15T14:29:56.978Z,5.38
2023-05-15T14:32:24.540Z,4.40
2023-05-15T14:34:51.835Z,5.70
2023-05-15T14:37:19.820Z,4.90
2023-05-15T14:39:46.849Z,3.95
2023-05-15T14:42:14.000Z,6.28
2023-05-15T14:44:41.113Z,3.55
2023-05-15T14:47:15.015Z,4.50
2023-05-15T14:49:42.320Z,3.42
2023-05-15T14:52:10.199Z,4.03
2023-05-15T14:54:38.453Z,2.97
2023-05-15T14:57:05.945Z,3.22
2023-05-15T14:59:33.001Z,2.83
2023-05-15T15:02:01.020Z,3.47
2023-05-15T15:04:30.588Z,4.38
2023-05-15T15:06:57.688Z,5.57
2023-05-15T15:09:26.953Z,5.50
2023-05-15T15:11:55.424Z,4.47
2023-05-15T15:14:22.493Z,5.82
2023-05-15T15:16:52.449Z,7.75
2023-05-15T15:19:20.497Z,5.63
2023-05-15T15:21:48.469Z,3.97
2023-05-15T15:27:01.341Z,4.22
2023-05-15T15:29:31.300Z,4.28
2023-05-15T15:31:58.282Z,4.30
2023-05-15T15:34:25.254Z,4.00
2023-05-15T15:36:52.325Z,4.55
2023-05-15T15:39:22.784Z,4.78
2023-05-15T15:41:49.803Z,3.80
2023-05-15T15:44:16.829Z,3.25
2023-05-15T15:46:43.793Z,3.92
2023-05-15T15:49:11.061Z,3.83
2023-05-15T15:51:38.742Z,5.57
2023-05-15T15:54:06.562Z,3.80
2023-05-15T15:56:34.226Z,4.45
2023-05-15T15:59:01.503Z,3.92
2023-05-15T16:01:28.632Z,6.00
2023-05-15T16:03:55.999Z,7.35
2023-05-15T16:06:23.258Z,6.78
2023-05-15T16:08:53.525Z,3.42
2023-05-15T16:11:21.545Z,4.55
2023-05-15T16:13:48.706Z,5.75
2023-05-15T16:16:16.139Z,7.13
2023-05-15T16:18:43.386Z,9.07
2023-05-15T16:21:10.722Z,14.20
2023-05-15T16:23:40.971Z,8.63
2023-05-15T16:26:11.521Z,6.25
2023-05-15T16:28:40.905Z,7.73
2023-05-15T16:31:13.202Z,4.93
2023-05-15T16:33:40.413Z,13.73
2023-05-15T16:36:08.296Z,7.07
2023-05-15T16:38:35.703Z,7.45
2023-05-15T16:41:03.688Z,8.00
2023-05-15T16:43:31.137Z,8.35
2023-05-15T16:45:59.189Z,9.63
2023-05-15T16:48:27.665Z,5.65
2023-05-15T16:50:54.589Z,9.82
2023-05-15T16:53:22.458Z,7.28
2023-05-15T16:55:50.274Z,5.60
2023-05-15T16:58:17.607Z,9.15
2023-05-15T17:00:44.665Z,7.70
2023-05-15T17:03:13.111Z,7.45
2023-05-15T17:05:41.351Z,15.30
2023-05-15T17:08:10.846Z,10.30
2023-05-15T17:10:37.813Z,12.93
2023-05-15T17:13:04.830Z,23.10
2023-05-15T17:15:31.882Z,16.05
2023-05-15T17:17:59.216Z,13.95
2023-05-15T17:20:27.288Z,14.25
2023-05-15T17:22:54.814Z,11.48
2023-05-15T17:25:25.198Z,10.00
2023-05-15T17:27:58.394Z,8.45
2023-05-15T17:30:27.676Z,11.88
2023-05-15T17:32:54.970Z,9.07
2023-05-15T17:35:26.427Z,13.27
2023-05-15T17:37:54.124Z,8.32
2023-05-15T17:40:21.853Z,10.25
2023-05-15T17:42:49.106Z,9.05
2023-05-15T17:45:16.638Z,6.50
2023-05-15T17:47:43.787Z,7.78
2023-05-15T17:50:11.342Z,8.52
2023-05-15T17:52:38.460Z,8.77
2023-05-15T17:55:06.350Z,9.43
2023-05-15T17:57:35.385Z,14.05
2023-05-15T18:00:02.730Z,22.35
2023-05-15T18:02:29.925Z,34.85
2023-05-15T18:04:57.646Z,22.90
2023-05-15T18:07:25.620Z,14.40
2023-05-15T18:09:53.444Z,8.85
2023-05-15T18:12:20.899Z,12.20
2023-05-15T18:14:49.201Z,9.20
2023-05-15T18:17:20.331Z,10.65
2023-05-15T18:19:47.360Z,8.40
2023-05-15T18:22:15.304Z,7.35
2023-05-15T18:24:43.176Z,8.55
2023-05-15T18:27:11.267Z,10.25
2023-05-15T18:29:38.407Z,8.45
2023-05-15T18:32:06.340Z,8.85
2023-05-15T18:34:34.983Z,9.77
2023-05-15T18:37:01.939Z,8.02
2023-05-15T18:39:29.113Z,10.27
2023-05-15T18:42:07.241Z,9.23
2023-05-15T18:44:36.022Z,9.05
2023-05-15T18:47:03.208Z,9.45
2023-05-15T18:49:30.256Z,9.05
2023-05-15T18:51:58.075Z,12.82
2023-05-15T18:54:25.689Z,9.65
2023-05-15T18:56:53.275Z,13.20
2023-05-15T18:59:20.642Z,9.88
2023-05-15T19:01:49.286Z,9.10
2023-05-15T19:04:16.777Z,8.18
2023-05-15T19:06:44.380Z,10.07
2023-05-15T19:09:11.686Z,10.63
2023-05-15T19:11:38.953Z,8.27
2023-05-15T19:14:08.973Z,11.70
2023-05-15T19:16:36.561Z,9.63
2023-05-15T19:19:06.425Z,15.20
2023-05-15T19:21:35.066Z,16.90
2023-05-15T19:24:04.713Z,12.55
2023-05-15T19:26:34.443Z,14.85
2023-05-15T19:31:47.921Z,15.27
2023-05-15T19:34:15.390Z,15.82
2023-05-15T19:36:45.207Z,11.73
2023-05-15T19:39:13.185Z,10.73
2023-05-15T19:41:41.232Z,13.00
2023-05-15T19:44:08.617Z,11.13
2023-05-15T19:46:36.300Z,11.85
2023-05-15T19:49:03.415Z,14.57
2023-05-15T19:51:33.694Z,11.93
2023-05-15T19:56:46.501Z,14.02
2023-05-15T19:59:15.022Z,16.52
2023-05-15T20:01:43.808Z,15.52
2023-05-15T20:04:14.664Z,16.50
2023-05-15T20:06:45.195Z,16.23
2023-05-15T20:09:13.374Z,14.20
2023-05-15T20:11:45.074Z,11.38
2023-05-15T20:14:16.001Z,10.27
2023-05-15T20:16:43.430Z,9.70
2023-05-15T20:19:11.516Z,7.60
2023-05-15T20:21:39.491Z,7.10
2023-05-15T20:24:08.404Z,6.50
2023-05-15T20:26:37.996Z,9.70
2023-05-15T20:29:05.523Z,5.70
2023-05-15T20:31:33.923Z,6.53
2023-05-15T20:34:03.700Z,8.48
2023-05-15T20:36:32.856Z,7.22
2023-05-15T20:39:10.555Z,7.88
2023-05-15T20:41:38.278Z,7.78
2023-05-15T20:44:06.520Z,8.02
2023-05-15T20:46:34.300Z,7.75
2023-05-15T20:49:02.105Z,7.95
2023-05-15T20:51:29.858Z,8.25
2023-05-15T20:53:58.256Z,7.75
2023-05-15T20:56:26.285Z,8.30
2023-05-15T20:58:55.623Z,10.23
2023-05-15T21:01:24.563Z,8.18
2023-05-15T21:03:52.233Z,8.73
2023-05-15T21:06:20.518Z,9.00
2023-05-15T21:08:49.032Z,7.90
2023-05-15T21:11:16.455Z,9.38
2023-05-15T21:13:46.315Z,7.75
2023-05-15T21:16:13.821Z,10.02
2023-05-15T21:18:42.998Z,9.38
2023-05-15T21:21:11.371Z,8.75
2023-05-15T21:23:41.013Z,9.32
2023-05-15T21:26:10.697Z,14.65
2023-05-15T21:28:38.557Z,8.88
2023-05-15T21:31:10.631Z,7.18
2023-05-15T21:33:41.882Z,13.05
2023-05-15T21:36:10.338Z,6.85
2023-05-15T21:38:41.361Z,10.50
2023-05-15T21:41:09.360Z,9.48
2023-05-15T21:43:51.350Z,6.05
2023-05-15T21:46:19.315Z,6.85
2023-05-15T21:48:48.553Z,6.80
2023-05-15T21:51:17.134Z,6.85
2023-05-15T21:53:48.496Z,5.97
2023-05-15T21:56:17.043Z,7.70
2023-05-15T21:58:45.971Z,9.68
2023-05-15T22:01:14.204Z,7.32
2023-05-15T22:03:45.133Z,15.57
2023-05-15T22:06:13.752Z,6.47
2023-05-15T22:08:42.226Z,7.13
2023-05-15T22:11:10.659Z,8.50
2023-05-15T22:13:45.189Z,8.05
2023-05-15T22:16:14.303Z,8.82
2023-05-15T22:18:46.314Z,7.53
2023-05-15T22:23:50.089Z,8.02
2023-05-15T22:26:27.160Z,8.10
2023-05-15T22:28:56.912Z,7.60
2023-05-15T22:31:25.958Z,9.55
2023-05-15T22:36:48.772Z,12.70
2023-05-15T22:39:23.415Z,8.40
2023-05-15T22:41:52.036Z,6.50
2023-05-15T22:44:23.663Z,7.88
2023-05-15T22:46:52.109Z,6.22
2023-05-15T22:49:23.879Z,7.45
2023-05-15T22:54:34.213Z,11.70
2023-05-15T22:57:06.220Z,6.88
2023-05-15T22:59:38.338Z,7.43
2023-05-15T23:02:09.341Z,5.70
2023-05-15T23:04:47.314Z,6.03
2023-05-15T23:07:17.611Z,4.35
2023-05-15T23:09:46.565Z,8.95
2023-05-15T23:12:17.564Z,7.22
2023-05-15T23:14:49.186Z,6.00
2023-05-15T23:17:17.665Z,8.98
2023-05-15T23:19:50.006Z,5.88
2023-05-15T23:22:18.454Z,6.38
2023-05-15T23:24:58.305Z,5.82
2023-05-15T23:27:27.630Z,8.38
2023-05-15T23:29:58.926Z,6.55
2023-05-15T23:32:28.209Z,7.07
2023-05-15T23:34:58.911Z,7.80
2023-05-15T23:37:32.500Z,7.82
2023-05-15T23:40:03.657Z,5.80
2023-05-15T23:42:32.480Z,7.50
2023-05-15T23:45:04.257Z,10.23
2023-05-15T23:47:37.945Z,6.40
2023-05-15T23:50:06.582Z,6.18
2023-05-15T23:52:35.675Z,6.05
2023-05-15T23:55:07.300Z,6.15
2023-05-15T23:57:35.219Z,6.72
